createdAt,value
2023-02-03T00:00:09.206Z,101246.47
2023-02-03T00:02:36.663Z,101252.22
2023-02-03T00:05:04.319Z,101251.44
2023-02-03T00:07:31.918Z,101254.59
2023-02-03T00:09:59.165Z,101245.88
2023-02-03T00:12:26.501Z,101244.94
2023-02-03T00:14:53.900Z,101243.91
2023-02-03T00:17:22.786Z,101237.47
2023-02-03T00:19:50.042Z,101228.28
2023-02-03T00:22:17.384Z,101223.47
2023-02-03T00:24:45.011Z,101231.38
2023-02-03T00:27:12.324Z,101218.25
2023-02-03T00:29:39.680Z,101233.78
2023-02-03T00:32:07.656Z,101224.78
2023-02-03T00:34:36.751Z,101232.00
2023-02-03T00:37:04.018Z,101239.38
2023-02-03T00:39:31.348Z,101230.78
2023-02-03T00:41:58.859Z,101215.88
2023-02-03T00:44:26.069Z,101220.94
2023-02-03T00:46:53.489Z,101230.84
2023-02-03T00:49:20.638Z,101233.28
2023-02-03T00:51:49.386Z,101239.00
2023-02-03T00:54:17.272Z,101235.22
2023-02-03T00:56:44.661Z,101242.69
2023-02-03T00:59:11.874Z,101249.22
2023-02-03T01:01:39.195Z,101250.97
2023-02-03T01:04:06.673Z,101250.00
2023-02-03T01:06:34.007Z,101253.66
2023-02-03T01:09:04.377Z,101255.25
2023-02-03T01:11:34.517Z,101253.31
2023-02-03T01:14:01.642Z,101252.69
2023-02-03T01:16:31.244Z,101255.22
2023-02-03T01:18:59.063Z,101254.34
2023-02-03T01:21:27.314Z,101263.66
2023-02-03T01:23:54.856Z,101271.16
2023-02-03T01:26:24.650Z,101258.88
2023-02-03T01:28:52.854Z,101264.81
2023-02-03T01:31:22.818Z,101277.06
2023-02-03T01:33:51.586Z,101274.69
2023-02-03T01:36:19.574Z,101270.19
2023-02-03T01:38:47.399Z,101275.72
2023-02-03T01:41:17.655Z,101274.03
2023-02-03T01:43:49.055Z,101279.00
2023-02-03T01:46:26.122Z,101273.81
2023-02-03T01:48:56.969Z,101272.81
2023-02-03T01:51:24.739Z,101279.34
2023-02-03T01:53:54.086Z,101282.66
2023-02-03T01:56:22.451Z,101285.41
2023-02-03T01:58:51.715Z,101293.47
2023-02-03T02:01:19.808Z,101290.28
2023-02-03T02:03:51.361Z,101288.75
2023-02-03T02:06:18.917Z,101293.50
2023-02-03T02:08:49.270Z,101284.69
2023-02-03T02:11:17.283Z,101288.44
2023-02-03T02:13:46.828Z,101281.06
2023-02-03T02:16:22.729Z,101264.63
2023-02-03T02:19:10.277Z,101264.72
2023-02-03T02:21:56.979Z,101264.69
2023-02-03T02:24:50.419Z,101278.44
2023-02-03T02:27:31.666Z,101280.00
2023-02-03T02:30:33.918Z,101284.06
2023-02-03T02:33:13.931Z,101276.19
2023-02-03T02:35:51.117Z,101285.97
2023-02-03T02:38:30.181Z,101284.75
2023-02-03T02:41:09.676Z,101280.44
2023-02-03T02:43:42.344Z,101276.19
2023-02-03T02:46:14.035Z,101289.09
2023-02-03T02:48:48.829Z,101276.50
2023-02-03T02:51:17.378Z,101268.19
2023-02-03T02:53:49.822Z,101263.66
2023-02-03T02:56:19.169Z,101269.91
2023-02-03T02:58:49.671Z,101271.53
2023-02-03T03:01:17.833Z,101260.50
2023-02-03T03:03:47.158Z,101264.41
2023-02-03T03:06:20.614Z,101256.22
2023-02-03T03:08:52.713Z,101272.63
2023-02-03T03:11:19.929Z,101273.13
2023-02-03T03:13:51.403Z,101277.19
2023-02-03T03:16:23.648Z,101299.13
2023-02-03T03:18:58.849Z,101305.00
2023-02-03T03:21:30.101Z,101302.56
2023-02-03T03:24:01.603Z,101308.63
2023-02-03T03:26:35.123Z,101325.41
2023-02-03T03:29:11.218Z,101324.66
2023-02-03T03:31:40.813Z,101326.78
2023-02-03T03:34:12.937Z,101324.97
2023-02-03T03:36:46.519Z,101318.94
2023-02-03T03:39:23.734Z,101316.63
2023-02-03T03:41:59.131Z,101342.47
2023-02-03T03:44:30.274Z,101330.84
2023-02-03T03:47:07.560Z,101335.94
2023-02-03T03:49:37.935Z,101325.56
2023-02-03T03:52:09.726Z,101334.53
2023-02-03T03:54:38.785Z,101341.50
2023-02-03T03:57:12.245Z,101336.78
2023-02-03T03:59:42.572Z,101337.25
2023-02-03T04:02:10.305Z,101339.63
2023-02-03T04:04:41.867Z,101335.63
2023-02-03T04:07:09.283Z,101345.56
2023-02-03T04:09:36.867Z,101350.44
2023-02-03T04:12:05.369Z,101353.72
2023-02-03T04:14:34.686Z,101347.50
2023-02-03T04:17:02.304Z,101358.63
2023-02-03T04:19:30.048Z,101355.06
2023-02-03T04:21:58.930Z,101354.19
2023-02-03T04:24:26.277Z,101359.25
2023-02-03T04:26:53.366Z,101364.09
2023-02-03T04:29:20.794Z,101365.06
2023-02-03T04:31:47.980Z,101358.63
2023-02-03T04:34:15.441Z,101358.31
2023-02-03T04:36:44.356Z,101361.47
2023-02-03T04:39:13.134Z,101367.91
2023-02-03T04:41:40.258Z,101375.41
2023-02-03T04:44:07.493Z,101377.03
2023-02-03T04:46:34.753Z,101375.28
2023-02-03T04:49:01.887Z,101368.94
2023-02-03T04:51:29.497Z,101386.75
2023-02-03T04:53:57.180Z,101387.59
2023-02-03T04:56:26.524Z,101396.38
2023-02-03T04:58:54.040Z,101401.84
2023-02-03T05:01:21.276Z,101408.03
2023-02-03T05:03:48.627Z,101410.00
2023-02-03T05:06:15.962Z,101407.06
2023-02-03T05:08:43.200Z,101412.56
2023-02-03T05:11:10.419Z,101414.47
2023-02-03T05:13:40.012Z,101419.69
2023-02-03T05:16:07.686Z,101425.56
2023-02-03T05:18:34.962Z,101428.59
2023-02-03T05:21:02.400Z,101431.03
2023-02-03T05:23:29.669Z,101424.16
2023-02-03T05:25:57.046Z,101436.09
2023-02-03T05:28:25.012Z,101428.88
2023-02-03T05:30:54.157Z,101437.56
2023-02-03T05:33:21.423Z,101437.22
2023-02-03T05:35:49.035Z,101440.16
2023-02-03T05:38:16.508Z,101445.03
2023-02-03T05:40:43.857Z,101448.34
2023-02-03T05:43:11.185Z,101456.28
2023-02-03T05:45:38.547Z,101451.94
2023-02-03T05:48:08.166Z,101463.41
2023-02-03T05:50:38.500Z,101465.19
2023-02-03T05:53:06.970Z,101460.97
2023-02-03T05:55:35.767Z,101468.78
2023-02-03T05:58:04.481Z,101466.34
2023-02-03T06:00:31.730Z,101472.88
2023-02-03T06:03:00.919Z,101471.75
2023-02-03T06:05:31.203Z,101465.69
2023-02-03T06:07:59.126Z,101457.75
2023-02-03T06:10:27.130Z,101462.53
2023-02-03T06:12:54.852Z,101462.16
2023-02-03T06:15:22.058Z,101461.81
2023-02-03T06:17:49.929Z,101469.34
2023-02-03T06:20:19.098Z,101464.53
2023-02-03T06:22:48.072Z,101473.72
2023-02-03T06:25:15.435Z,101482.31
2023-02-03T06:27:42.984Z,101489.22
2023-02-03T06:30:11.778Z,101487.06
2023-02-03T06:32:39.443Z,101491.31
2023-02-03T06:35:07.309Z,101494.34
2023-02-03T06:37:34.657Z,101499.44
2023-02-03T06:40:04.666Z,101502.84
2023-02-03T06:42:32.686Z,101508.41
2023-02-03T06:44:59.964Z,101513.50
2023-02-03T06:47:27.175Z,101509.06
2023-02-03T06:49:54.539Z,101512.00
2023-02-03T06:52:21.711Z,101517.00
2023-02-03T06:54:48.908Z,101513.88
2023-02-03T06:57:17.997Z,101520.53
2023-02-03T06:59:45.399Z,101517.78
2023-02-03T07:02:12.662Z,101522.69
2023-02-03T07:04:40.146Z,101519.50
2023-02-03T07:07:07.299Z,101522.88
2023-02-03T07:09:34.502Z,101527.13
2023-02-03T07:12:01.842Z,101529.50
2023-02-03T07:14:30.549Z,101535.28
2023-02-03T07:16:57.896Z,101539.59
2023-02-03T07:19:25.695Z,101543.13
2023-02-03T07:21:52.959Z,101532.16
2023-02-03T07:24:20.149Z,101547.66
2023-02-03T07:26:47.663Z,101547.97
2023-02-03T07:29:14.828Z,101548.50
2023-02-03T07:31:43.669Z,101554.94
2023-02-03T07:34:11.668Z,101550.22
2023-02-03T07:36:38.897Z,101552.41
2023-02-03T07:39:06.150Z,101558.72
2023-02-03T07:41:33.626Z,101561.19
2023-02-03T07:44:00.972Z,101559.19
2023-02-03T07:46:28.738Z,101568.19
2023-02-03T07:48:57.512Z,101573.38
2023-02-03T07:51:24.930Z,101576.03
2023-02-03T07:53:52.460Z,101582.25
2023-02-03T07:56:19.981Z,101588.03
2023-02-03T07:58:47.352Z,101591.59
2023-02-03T08:01:16.210Z,101592.44
2023-02-03T08:03:45.230Z,101598.66
2023-02-03T08:06:15.610Z,101600.91
2023-02-03T08:08:43.134Z,101611.78
2023-02-03T08:11:10.548Z,101603.69
2023-02-03T08:13:37.833Z,101605.97
2023-02-03T08:16:05.815Z,101611.81
2023-02-03T08:18:33.551Z,101622.97
2023-02-03T08:21:00.667Z,101629.16
2023-02-03T08:23:29.477Z,101621.22
2023-02-03T08:25:56.995Z,101626.41
2023-02-03T08:28:24.247Z,101630.00
2023-02-03T08:30:51.502Z,101626.88
2023-02-03T08:33:19.614Z,101626.91
2023-02-03T08:35:50.191Z,101623.28
2023-02-03T08:38:17.940Z,101616.69
2023-02-03T08:40:47.731Z,101616.75
2023-02-03T08:43:15.103Z,101630.19
2023-02-03T08:45:42.392Z,101623.63
2023-02-03T08:48:10.050Z,101633.72
2023-02-03T08:50:37.770Z,101637.34
2023-02-03T08:53:05.007Z,101641.19
2023-02-03T08:55:32.403Z,101643.31
2023-02-03T08:58:01.230Z,101659.59
2023-02-03T09:00:28.765Z,101667.06
2023-02-03T09:02:56.571Z,101664.03
2023-02-03T09:05:23.769Z,101664.22
2023-02-03T09:07:51.014Z,101664.31
2023-02-03T09:10:18.179Z,101657.88
2023-02-03T09:12:45.549Z,101650.50
2023-02-03T09:15:14.287Z,101651.34
2023-02-03T09:17:42.169Z,101653.75
2023-02-03T09:20:10.953Z,101657.88
2023-02-03T09:22:38.175Z,101656.72
2023-02-03T09:25:06.240Z,101661.09
2023-02-03T09:27:33.607Z,101661.53
2023-02-03T09:30:00.883Z,101668.03
2023-02-03T09:32:30.976Z,101671.59
2023-02-03T09:34:58.133Z,101684.00
2023-02-03T09:37:25.460Z,101685.03
2023-02-03T09:39:52.949Z,101695.06
2023-02-03T09:42:33.438Z,101704.84
2023-02-03T09:45:15.912Z,101706.44
2023-02-03T09:47:45.140Z,101706.81
2023-02-03T09:50:20.834Z,101710.00
2023-02-03T09:52:49.676Z,101703.22
2023-02-03T09:55:27.956Z,101708.69
2023-02-03T09:58:01.570Z,101701.91
2023-02-03T10:00:33.405Z,101701.56
2023-02-03T10:03:08.426Z,101715.31
2023-02-03T10:05:57.967Z,101727.72
2023-02-03T10:08:42.206Z,101729.69
2023-02-03T10:11:20.724Z,101735.41
2023-02-03T10:14:00.651Z,101744.78
2023-02-03T10:16:40.058Z,101749.72
2023-02-03T10:19:13.408Z,101743.44
2023-02-03T10:21:46.187Z,101747.25
2023-02-03T10:24:17.788Z,101740.16
2023-02-03T10:26:45.424Z,101734.34
2023-02-03T10:29:19.995Z,101736.16
2023-02-03T10:31:48.067Z,101737.56
2023-02-03T10:34:18.401Z,101743.47
2023-02-03T10:37:07.373Z,101742.78
2023-02-03T10:39:43.474Z,101745.44
2023-02-03T10:42:13.121Z,101758.53
2023-02-03T10:44:42.974Z,101756.53
2023-02-03T10:47:22.557Z,101762.78
2023-02-03T10:49:53.708Z,101762.91
2023-02-03T10:52:31.223Z,101772.66
2023-02-03T10:54:59.143Z,101767.44
2023-02-03T10:57:29.648Z,101767.50
2023-02-03T11:00:08.049Z,101769.78
2023-02-03T11:02:35.733Z,101770.28
2023-02-03T11:05:20.894Z,101770.47
2023-02-03T11:07:48.491Z,101769.06
2023-02-03T11:10:34.040Z,101778.28
2023-02-03T11:13:21.952Z,101776.84
2023-02-03T11:15:54.588Z,101775.69
2023-02-03T11:18:41.664Z,101777.69
2023-02-03T11:21:17.129Z,101781.94
2023-02-03T11:23:54.145Z,101779.75
2023-02-03T11:26:25.051Z,101782.81
2023-02-03T11:28:57.059Z,101781.69
2023-02-03T11:31:27.441Z,101784.69
2023-02-03T11:33:58.525Z,101786.97
2023-02-03T11:36:29.886Z,101789.13
2023-02-03T11:39:25.537Z,101794.66
2023-02-03T11:44:25.826Z,101792.97
2023-02-03T11:46:58.056Z,101796.75
2023-02-03T11:50:07.674Z,101796.91
2023-02-03T11:53:16.143Z,101797.50
2023-02-03T11:56:09.387Z,101796.91
2023-02-03T11:58:55.152Z,101800.03
2023-02-03T12:01:37.162Z,101795.44
2023-02-03T12:04:22.062Z,101785.53
2023-02-03T12:07:06.076Z,101785.03
2023-02-03T12:09:45.418Z,101783.91
2023-02-03T12:12:37.260Z,101788.31
2023-02-03T12:15:21.003Z,101795.47
2023-02-03T12:18:07.109Z,101791.06
2023-02-03T12:20:53.604Z,101794.91
2023-02-03T12:23:35.939Z,101799.22
2023-02-03T12:26:16.640Z,101812.38
2023-02-03T12:28:56.801Z,101802.38
2023-02-03T12:31:32.877Z,101801.94
2023-02-03T12:34:12.341Z,101802.72
2023-02-03T12:36:43.130Z,101801.47
2023-02-03T12:39:20.238Z,101796.25
2023-02-03T12:41:55.111Z,101799.03
2023-02-03T12:44:30.075Z,101803.66
2023-02-03T12:47:06.703Z,101794.00
2023-02-03T12:49:41.679Z,101794.06
2023-02-03T12:52:18.130Z,101797.03
2023-02-03T12:54:52.786Z,101796.88
2023-02-03T12:57:25.755Z,101803.06
2023-02-03T13:00:16.481Z,101803.84
2023-02-03T13:02:58.433Z,101799.78
2023-02-03T13:05:34.727Z,101800.56
2023-02-03T13:08:13.849Z,101805.72
2023-02-03T13:10:48.965Z,101808.47
2023-02-03T13:13:24.260Z,101814.06
2023-02-03T13:15:55.769Z,101815.31
2023-02-03T13:18:27.706Z,101820.03
2023-02-03T13:20:56.186Z,101820.31
2023-02-03T13:23:25.202Z,101815.09
2023-02-03T13:26:34.034Z,101819.31
2023-02-03T13:29:25.903Z,101820.97
2023-02-03T13:32:11.215Z,101815.63
2023-02-03T13:35:02.685Z,101821.28
2023-02-03T13:37:48.922Z,101808.28
2023-02-03T13:40:26.203Z,101813.28
2023-02-03T13:42:56.263Z,101822.84
2023-02-03T13:45:27.614Z,101817.78
2023-02-03T13:48:02.544Z,101816.75
2023-02-03T13:50:31.118Z,101813.16
2023-02-03T13:53:01.933Z,101820.44
2023-02-03T13:55:34.000Z,101821.19
2023-02-03T13:58:01.656Z,101808.28
2023-02-03T14:01:05.787Z,101821.59
2023-02-03T14:03:46.268Z,101819.75
2023-02-03T14:06:56.404Z,101817.28
2023-02-03T14:09:35.108Z,101811.81
2023-02-03T14:12:22.309Z,101813.81
2023-02-03T14:15:00.912Z,101806.91
2023-02-03T14:18:02.510Z,101818.06
2023-02-03T14:21:11.782Z,101817.97
2023-02-03T14:23:44.748Z,101819.88
2023-02-03T14:26:22.694Z,101819.56
2023-02-03T14:28:53.762Z,101829.38
2023-02-03T14:31:22.896Z,101820.09
2023-02-03T14:34:08.711Z,101833.78
2023-02-03T14:36:51.005Z,101836.41
2023-02-03T14:40:07.412Z,101836.00
2023-02-03T14:43:04.854Z,101834.22
2023-02-03T14:46:03.735Z,101837.97
2023-02-03T14:48:57.356Z,101840.78
2023-02-03T14:51:42.313Z,101836.69
2023-02-03T14:54:24.656Z,101834.69
2023-02-03T14:57:17.627Z,101855.38
2023-02-03T14:59:48.430Z,101855.84
2023-02-03T15:02:19.281Z,101850.69
2023-02-03T15:04:48.029Z,101848.91
2023-02-03T15:07:40.951Z,101850.19
2023-02-03T15:10:16.037Z,101855.47
2023-02-03T15:12:49.553Z,101855.28
2023-02-03T15:15:23.859Z,101858.81
2023-02-03T15:17:54.133Z,101865.19
2023-02-03T15:20:35.151Z,101869.13
2023-02-03T15:23:03.302Z,101875.59
2023-02-03T15:25:32.241Z,101881.28
2023-02-03T15:28:13.732Z,101880.63
2023-02-03T15:30:41.497Z,101883.53
2023-02-03T15:33:14.421Z,101890.72
2023-02-03T15:35:44.459Z,101888.00
2023-02-03T15:38:15.458Z,101894.00
2023-02-03T15:40:48.455Z,101908.59
2023-02-03T15:43:20.266Z,101916.25
2023-02-03T15:45:59.477Z,101915.50
2023-02-03T15:48:32.697Z,101913.44
2023-02-03T15:51:08.419Z,101914.41
2023-02-03T15:53:47.762Z,101921.91
2023-02-03T15:56:22.583Z,101925.75
2023-02-03T15:58:50.746Z,101926.69
2023-02-03T16:01:23.439Z,101922.41
2023-02-03T16:03:52.836Z,101930.59
2023-02-03T16:06:25.639Z,101924.81
2023-02-03T16:08:53.360Z,101931.19
2023-02-03T16:11:31.787Z,101923.38
2023-02-03T16:14:01.203Z,101924.56
2023-02-03T16:16:32.152Z,101933.31
2023-02-03T16:19:03.232Z,101943.19
2023-02-03T16:21:36.384Z,101955.03
2023-02-03T16:24:06.040Z,101955.94
2023-02-03T16:26:35.115Z,101959.72
2023-02-03T16:29:15.727Z,101966.25
2023-02-03T16:31:46.402Z,101965.72
2023-02-03T16:34:16.864Z,101961.91
2023-02-03T16:36:45.174Z,101969.91
2023-02-03T16:39:13.006Z,101961.03
2023-02-03T16:41:41.865Z,101960.66
2023-02-03T16:44:11.889Z,101971.63
2023-02-03T16:46:39.272Z,101969.09
2023-02-03T16:49:06.880Z,101967.38
2023-02-03T16:51:40.885Z,101972.00
2023-02-03T16:54:11.878Z,101967.38
2023-02-03T16:56:39.276Z,101977.44
2023-02-03T16:59:08.078Z,101978.78
2023-02-03T17:01:36.062Z,101983.06
2023-02-03T17:04:03.582Z,101985.97
2023-02-03T17:06:31.225Z,101982.88
2023-02-03T17:08:59.226Z,101985.44
2023-02-03T17:11:27.163Z,101981.50
2023-02-03T17:13:54.834Z,101977.03
2023-02-03T17:16:26.831Z,101988.97
2023-02-03T17:18:54.629Z,101991.44
2023-02-03T17:21:24.063Z,101980.81
2023-02-03T17:23:51.425Z,101984.75
2023-02-03T17:26:19.277Z,101994.53
2023-02-03T17:28:46.704Z,101992.22
2023-02-03T17:31:16.236Z,101997.72
2023-02-03T17:33:46.349Z,101992.41
2023-02-03T17:36:15.395Z,101996.69
2023-02-03T17:55:13.842Z,102021.69
2023-02-03T17:57:41.229Z,102015.88
2023-02-03T18:00:10.082Z,102017.78
2023-02-03T18:02:37.521Z,102018.78
2023-02-03T18:05:07.855Z,102022.59
2023-02-03T18:07:35.200Z,102026.34
2023-02-03T18:10:02.722Z,102030.72
2023-02-03T18:12:29.923Z,102025.19
2023-02-03T18:14:57.758Z,102034.38
2023-02-03T18:17:25.382Z,102030.59
2023-02-03T18:19:56.229Z,102039.00
2023-02-03T18:22:25.709Z,102035.25
2023-02-03T18:24:53.115Z,102028.53
2023-02-03T18:27:20.710Z,102033.53
2023-02-03T18:29:49.692Z,102037.63
2023-02-03T18:32:17.337Z,102025.50
2023-02-03T18:34:44.649Z,102030.69
2023-02-03T18:37:12.695Z,102030.25
2023-02-03T18:39:42.270Z,102033.25
2023-02-03T18:42:09.802Z,102040.41
2023-02-03T18:44:37.098Z,102037.16
2023-02-03T18:47:04.662Z,102040.28
2023-02-03T18:49:31.918Z,102046.97
2023-02-03T18:51:59.521Z,102041.97
2023-02-03T18:54:27.243Z,102037.47
2023-02-03T18:56:56.137Z,102037.00
2023-02-03T18:59:23.963Z,102043.91
2023-02-03T19:01:51.853Z,102042.75
2023-02-03T19:04:19.160Z,102042.34
2023-02-03T19:06:46.504Z,102038.25
2023-02-03T19:09:14.561Z,102040.63
2023-02-03T19:11:41.759Z,102038.69
2023-02-03T19:14:12.598Z,102026.66
2023-02-03T19:16:39.974Z,102030.06
2023-02-03T19:19:07.320Z,102028.28
2023-02-03T19:21:34.585Z,102043.56
2023-02-03T19:24:02.390Z,102037.38
2023-02-03T19:26:29.609Z,102041.25
2023-02-03T19:28:56.942Z,102043.16
2023-02-03T19:31:25.988Z,102043.97
2023-02-03T19:33:53.381Z,102047.69
2023-02-03T19:36:21.566Z,102051.06
2023-02-03T19:38:48.920Z,102059.81
2023-02-03T19:41:16.248Z,102064.31
2023-02-03T19:43:44.137Z,102055.75
2023-02-03T19:46:13.320Z,102046.91
2023-02-03T19:48:41.945Z,102048.91
2023-02-03T19:51:09.600Z,102057.13
2023-02-03T19:53:36.826Z,102046.84
2023-02-03T19:56:04.506Z,102049.63
2023-02-03T19:58:32.158Z,102051.81
2023-02-03T20:00:59.577Z,102060.38
2023-02-03T20:03:26.912Z,102053.00
2023-02-03T20:05:55.739Z,102059.03
2023-02-03T20:08:23.084Z,102060.97
2023-02-03T20:10:50.603Z,102056.53
2023-02-03T20:13:18.141Z,102058.31
2023-02-03T20:15:45.334Z,102060.03
2023-02-03T20:18:12.521Z,102061.41
2023-02-03T20:20:39.834Z,102065.50
2023-02-03T20:23:08.793Z,102057.22
2023-02-03T20:25:36.210Z,102062.88
2023-02-03T20:28:03.244Z,102068.25
2023-02-03T20:30:30.922Z,102062.78
2023-02-03T20:32:58.371Z,102056.56
2023-02-03T20:35:26.680Z,102062.44
2023-02-03T20:37:53.997Z,102063.47
2023-02-03T20:40:24.827Z,102068.78
2023-02-03T20:42:52.136Z,102072.03
2023-02-03T20:45:20.990Z,102073.56
2023-02-03T20:47:49.593Z,102071.88
2023-02-03T20:50:18.196Z,102074.13
2023-02-03T20:52:45.380Z,102071.56
2023-02-03T20:55:14.474Z,102074.13
2023-02-03T20:57:43.938Z,102079.28
2023-02-03T21:00:14.571Z,102083.00
2023-02-03T21:02:42.755Z,102077.50
2023-02-03T21:05:26.307Z,102082.13
2023-02-03T21:07:53.842Z,102072.25
2023-02-03T21:10:22.541Z,102073.59
2023-02-03T21:12:52.041Z,102075.66
2023-02-03T21:15:20.403Z,102074.31
2023-02-03T21:17:47.565Z,102070.59
2023-02-03T21:20:24.914Z,102079.44
2023-02-03T21:22:52.393Z,102078.91
2023-02-03T21:25:28.690Z,102078.19
2023-02-03T21:27:58.678Z,102085.44
2023-02-03T21:30:28.390Z,102078.19
2023-02-03T21:32:56.653Z,102085.91
2023-02-03T21:35:27.334Z,102077.88
2023-02-03T21:37:57.967Z,102081.84
2023-02-03T21:40:26.685Z,102087.44
2023-02-03T21:42:54.924Z,102084.19
2023-02-03T21:45:35.183Z,102089.72
2023-02-03T21:48:21.973Z,102100.47
2023-02-03T21:50:49.266Z,102092.25
2023-02-03T21:53:28.367Z,102094.00
2023-02-03T21:55:55.848Z,102093.44
2023-02-03T21:58:26.329Z,102104.97
2023-02-03T22:00:56.569Z,102097.03
2023-02-03T22:03:27.047Z,102104.78
2023-02-03T22:06:13.554Z,102106.16
2023-02-03T22:08:43.650Z,102111.13
2023-02-03T22:11:11.314Z,102104.97
2023-02-03T22:13:39.094Z,102100.13
2023-02-03T22:16:08.520Z,102111.47
2023-02-03T22:18:35.814Z,102105.97
2023-02-03T22:21:03.154Z,102107.72
2023-02-03T22:23:30.512Z,102113.38
2023-02-03T22:25:57.648Z,102107.84
2023-02-03T22:28:25.672Z,102123.31
2023-02-03T22:30:53.363Z,102127.75
2023-02-03T22:33:22.062Z,102123.16
2023-02-03T22:35:49.574Z,102131.03
2023-02-03T22:38:16.960Z,102129.16
2023-02-03T22:40:44.487Z,102126.22
2023-02-03T22:43:12.034Z,102124.69
2023-02-03T22:45:39.434Z,102128.59
2023-02-03T22:48:07.044Z,102138.88
2023-02-03T22:50:36.945Z,102138.03
2023-02-03T22:53:04.450Z,102137.00
2023-02-03T22:55:31.964Z,102140.78
2023-02-03T22:57:59.359Z,102140.97
2023-02-03T23:00:27.225Z,102136.47
2023-02-03T23:02:54.936Z,102146.25
2023-02-03T23:05:22.661Z,102149.19
2023-02-03T23:07:51.274Z,102163.41
2023-02-03T23:10:21.010Z,102165.13
2023-02-03T23:12:49.443Z,102166.69
2023-02-03T23:15:17.316Z,102167.69
2023-02-03T23:17:45.237Z,102161.19
2023-02-03T23:20:14.549Z,102174.22
2023-02-03T23:22:42.027Z,102173.53
2023-02-03T23:25:12.703Z,102179.03
2023-02-03T23:27:40.140Z,102175.22
2023-02-03T23:30:08.701Z,102176.97
2023-02-03T23:32:35.983Z,102170.28
2023-02-03T23:35:04.222Z,102170.63
2023-02-03T23:37:31.675Z,102167.19
2023-02-03T23:39:58.853Z,102178.66
2023-02-03T23:42:27.754Z,102176.97
2023-02-03T23:44:55.026Z,102177.34
2023-02-03T23:47:22.393Z,102181.25
2023-02-03T23:49:49.766Z,102187.28
2023-02-03T23:52:17.026Z,102180.06
2023-02-03T23:54:44.287Z,102186.25
2023-02-03T23:57:11.834Z,102195.81
2023-02-03T23:59:40.684Z,102197.53
